createdAt,value
2023-05-14T00:01:01.006Z,94585.56
2023-05-14T00:03:27.394Z,94584.34
2023-05-14T00:05:53.769Z,94572.31
2023-05-14T00:08:20.111Z,94577.44
2023-05-14T00:10:46.423Z,94575.19
2023-05-14T00:13:12.750Z,94571.72
2023-05-14T00:15:39.113Z,94574.38
2023-05-14T00:18:05.539Z,94574.78
2023-05-14T00:20:31.922Z,94565.19
2023-05-14T00:22:58.249Z,94565.84
2023-05-14T00:25:24.603Z,94564.81
2023-05-14T00:27:50.987Z,94564.78
2023-05-14T00:30:17.310Z,94562.31
2023-05-14T00:32:43.675Z,94554.38
2023-05-14T00:35:10.083Z,94551.56
2023-05-14T00:37:36.419Z,94546.41
2023-05-14T00:40:02.769Z,94551.09
2023-05-14T00:42:29.166Z,94554.16
2023-05-14T00:44:55.518Z,94545.03
2023-05-14T00:47:21.916Z,94547.91
2023-05-14T00:49:48.290Z,94547.44
2023-05-14T00:52:14.616Z,94543.19
2023-05-14T00:54:40.955Z,94533.63
2023-05-14T00:57:07.288Z,94534.19
2023-05-14T00:59:33.635Z,94538.28
2023-05-14T01:01:59.955Z,94532.00
2023-05-14T01:04:26.301Z,94537.09
2023-05-14T01:06:52.665Z,94529.34
2023-05-14T01:09:19.004Z,94527.31
2023-05-14T01:11:45.322Z,94523.44
2023-05-14T01:14:11.653Z,94526.69
2023-05-14T01:16:38.035Z,94525.69
2023-05-14T01:19:04.415Z,94528.28
2023-05-14T01:21:30.770Z,94523.00
2023-05-14T01:23:57.086Z,94523.63
2023-05-14T01:26:23.422Z,94524.84
2023-05-14T01:28:49.736Z,94525.44
2023-05-14T01:31:16.147Z,94527.47
2023-05-14T01:33:42.536Z,94521.94
2023-05-14T01:36:08.895Z,94517.47
2023-05-14T01:38:35.206Z,94517.47
2023-05-14T01:41:01.531Z,94522.16
2023-05-14T01:43:27.893Z,94521.53
2023-05-14T01:45:54.448Z,94520.34
2023-05-14T01:48:20.857Z,94524.63
2023-05-14T01:50:47.193Z,94527.47
2023-05-14T01:53:13.529Z,94530.31
2023-05-14T01:55:39.859Z,94521.78
2023-05-14T01:58:06.196Z,94522.97
2023-05-14T02:00:32.519Z,94525.00
2023-05-14T02:02:58.941Z,94525.16
2023-05-14T02:05:25.343Z,94519.28
2023-05-14T02:07:51.669Z,94525.81
2023-05-14T02:10:17.995Z,94517.66
2023-05-14T02:12:44.325Z,94519.25
2023-05-14T02:15:10.658Z,94523.16
2023-05-14T02:17:37.014Z,94521.13
2023-05-14T02:20:03.363Z,94522.78
2023-05-14T02:22:29.696Z,94527.03
2023-05-14T02:24:56.030Z,94522.16
2023-05-14T02:27:22.374Z,94520.53
2023-05-14T02:29:48.705Z,94519.28
2023-05-14T02:32:15.088Z,94515.59
2023-05-14T02:34:41.413Z,94520.31
2023-05-14T02:37:07.724Z,94519.91
2023-05-14T02:39:34.037Z,94519.31
2023-05-14T02:42:00.372Z,94514.25
2023-05-14T02:44:26.708Z,94510.38
2023-05-14T02:46:53.137Z,94505.09
2023-05-14T02:49:19.505Z,94504.47
2023-05-14T02:51:45.851Z,94508.94
2023-05-14T02:54:12.172Z,94502.19
2023-05-14T02:56:38.508Z,94498.56
2023-05-14T02:59:04.863Z,94497.50
2023-05-14T03:01:31.712Z,94508.09
2023-05-14T03:03:58.451Z,94498.75
2023-05-14T03:06:24.766Z,94498.16
2023-05-14T03:08:51.108Z,94503.63
2023-05-14T03:11:17.454Z,94500.19
2023-05-14T03:13:43.788Z,94498.94
2023-05-14T03:16:10.212Z,94508.72
2023-05-14T03:18:36.671Z,94502.03
2023-05-14T03:21:03.129Z,94495.28
2023-05-14T03:23:29.450Z,94499.75
2023-05-14T03:25:55.788Z,94501.34
2023-05-14T03:28:22.101Z,94505.38
2023-05-14T03:30:48.477Z,94500.53
2023-05-14T03:33:14.837Z,94496.28
2023-05-14T03:35:41.148Z,94501.31
2023-05-14T03:38:07.494Z,94495.63
2023-05-14T03:40:33.844Z,94499.91
2023-05-14T03:43:00.195Z,94494.44
2023-05-14T03:45:26.526Z,94500.75
2023-05-14T03:47:52.903Z,94503.78
2023-05-14T03:50:19.272Z,94497.91
2023-05-14T03:52:45.612Z,94503.00
2023-05-14T03:55:11.971Z,94506.22
2023-05-14T03:57:38.313Z,94509.69
2023-05-14T04:00:04.631Z,94511.13
2023-05-14T04:02:31.071Z,94510.94
2023-05-14T04:04:57.558Z,94511.56
2023-05-14T04:07:23.947Z,94505.66
2023-05-14T04:09:50.290Z,94500.34
2023-05-14T04:12:16.620Z,94500.75
2023-05-14T04:14:42.945Z,94505.25
2023-05-14T04:17:09.288Z,94502.19
2023-05-14T04:19:35.640Z,94498.53
2023-05-14T04:22:01.982Z,94503.00
2023-05-14T04:24:28.302Z,94506.44
2023-05-14T04:26:54.617Z,94508.50
2023-05-14T04:29:20.939Z,94500.13
2023-05-14T04:31:47.275Z,94503.41
2023-05-14T04:34:13.610Z,94503.41
2023-05-14T04:36:39.917Z,94501.75
2023-05-14T04:39:06.247Z,94507.25
2023-05-14T04:41:32.579Z,94512.56
2023-05-14T04:43:58.906Z,94499.53
2023-05-14T04:46:25.341Z,94503.34
2023-05-14T04:48:51.689Z,94511.66
2023-05-14T04:51:17.994Z,94512.91
2023-05-14T04:53:44.310Z,94517.19
2023-05-14T04:56:10.618Z,94517.59
2023-05-14T04:58:36.956Z,94523.88
2023-05-14T05:01:03.319Z,94518.59
2023-05-14T05:03:29.791Z,94522.88
2023-05-14T05:05:56.208Z,94514.34
2023-05-14T05:08:22.545Z,94522.13
2023-05-14T05:10:48.883Z,94517.22
2023-05-14T05:13:15.194Z,94518.59
2023-05-14T05:15:41.537Z,94515.34
2023-05-14T05:18:08.157Z,94517.78
2023-05-14T05:20:34.543Z,94517.19
2023-05-14T05:23:00.870Z,94531.81
2023-05-14T05:25:27.191Z,94531.03
2023-05-14T05:27:53.550Z,94528.78
2023-05-14T05:30:19.872Z,94532.88
2023-05-14T05:32:46.232Z,94528.19
2023-05-14T05:35:12.584Z,94533.09
2023-05-14T05:37:38.926Z,94525.38
2023-05-14T05:40:05.242Z,94527.84
2023-05-14T05:42:31.559Z,94529.03
2023-05-14T05:44:57.894Z,94533.28
2023-05-14T05:47:24.263Z,94531.72
2023-05-14T05:49:50.621Z,94525.63
2023-05-14T05:52:16.939Z,94531.28
2023-05-14T05:54:43.272Z,94528.25
2023-05-14T05:57:09.594Z,94537.41
2023-05-14T05:59:35.912Z,94529.44
2023-05-14T06:02:02.315Z,94529.88
2023-05-14T06:04:28.679Z,94534.97
2023-05-14T06:06:55.038Z,94539.25
2023-05-14T06:09:21.352Z,94536.84
2023-05-14T06:11:47.681Z,94531.53
2023-05-14T06:14:14.012Z,94526.88
2023-05-14T06:16:40.357Z,94526.25
2023-05-14T06:19:06.749Z,94530.94
2023-05-14T06:21:33.154Z,94530.31
2023-05-14T06:23:59.474Z,94537.25
2023-05-14T06:26:25.797Z,94540.50
2023-05-14T06:28:52.124Z,94538.25
2023-05-14T06:31:18.468Z,94542.53
2023-05-14T06:33:44.797Z,94539.50
2023-05-14T06:36:11.122Z,94542.59
2023-05-14T06:38:37.460Z,94544.19
2023-05-14T06:41:03.769Z,94544.44
2023-05-14T06:43:30.101Z,94551.56
2023-05-14T06:45:56.420Z,94544.25
2023-05-14T06:48:22.989Z,94546.47
2023-05-14T06:50:49.382Z,94544.44
2023-05-14T06:53:15.717Z,94544.03
2023-05-14T06:55:42.063Z,94551.34
2023-05-14T06:58:08.400Z,94545.88
2023-05-14T07:00:34.740Z,94546.69
2023-05-14T07:03:01.120Z,94552.00
2023-05-14T07:05:27.496Z,94552.16
2023-05-14T07:07:53.805Z,94545.69
2023-05-14T07:10:20.111Z,94551.16
2023-05-14T07:12:46.444Z,94548.09
2023-05-14T07:15:12.748Z,94545.63
2023-05-14T07:17:39.114Z,94542.94
2023-05-14T07:20:05.513Z,94534.53
2023-05-14T07:22:31.844Z,94536.56
2023-05-14T07:24:58.181Z,94534.72
2023-05-14T07:27:24.520Z,94542.88
2023-05-14T07:29:50.858Z,94536.34
2023-05-14T07:32:17.164Z,94538.22
2023-05-14T07:34:43.579Z,94534.09
2023-05-14T07:37:09.911Z,94517.78
2023-05-14T07:39:36.223Z,94518.75
2023-05-14T07:42:02.528Z,94523.84
2023-05-14T07:44:28.858Z,94519.75
2023-05-14T07:46:55.244Z,94518.16
2023-05-14T07:49:21.571Z,94521.19
2023-05-14T07:51:47.867Z,94517.16
2023-05-14T07:54:14.172Z,94514.50
2023-05-14T07:56:40.481Z,94514.38
2023-05-14T07:59:06.818Z,94516.56
2023-05-14T08:01:33.140Z,94514.72
2023-05-14T08:03:59.565Z,94524.50
2023-05-14T08:06:25.906Z,94517.16
2023-05-14T08:08:52.218Z,94515.94
2023-05-14T08:11:18.643Z,94519.56
2023-05-14T08:13:45.028Z,94519.75
2023-05-14T08:16:11.355Z,94512.97
2023-05-14T08:18:37.752Z,94504.41
2023-05-14T08:21:04.114Z,94497.94
2023-05-14T08:23:30.455Z,94508.31
2023-05-14T08:25:56.777Z,94495.81
2023-05-14T08:28:23.128Z,94492.06
2023-05-14T08:30:49.498Z,94495.91
2023-05-14T08:33:15.870Z,94485.72
2023-05-14T08:35:42.211Z,94493.81
2023-05-14T08:38:08.534Z,94493.47
2023-05-14T08:40:34.844Z,94491.38
2023-05-14T08:43:01.171Z,94496.53
2023-05-14T08:45:27.478Z,94498.69
2023-05-14T08:47:53.847Z,94493.78
2023-05-14T08:50:22.588Z,94488.66
2023-05-14T08:52:49.494Z,94492.97
2023-05-14T08:55:15.833Z,94494.09
2023-05-14T08:57:42.143Z,94494.13
2023-05-14T09:00:08.476Z,94485.72
2023-05-14T09:02:34.952Z,94484.94
2023-05-14T09:05:01.459Z,94482.09
2023-05-14T09:07:27.807Z,94478.50
2023-05-14T09:09:54.120Z,94490.75
2023-05-14T09:12:20.511Z,94487.25
2023-05-14T09:14:46.818Z,94484.22
2023-05-14T09:17:13.148Z,94483.63
2023-05-14T09:19:39.469Z,94488.75
2023-05-14T09:22:05.777Z,94484.84
2023-05-14T09:24:32.092Z,94487.41
2023-05-14T09:26:58.405Z,94480.31
2023-05-14T09:29:24.742Z,94482.16
2023-05-14T09:31:51.098Z,94489.28
2023-05-14T09:34:17.429Z,94479.75
2023-05-14T09:36:43.744Z,94479.88
2023-05-14T09:39:10.072Z,94475.47
2023-05-14T09:41:36.372Z,94472.81
2023-05-14T09:44:03.718Z,94476.34
2023-05-14T09:46:31.702Z,94473.19
2023-05-14T09:48:58.029Z,94470.19
2023-05-14T09:51:24.338Z,94475.38
2023-05-14T09:53:50.652Z,94475.81
2023-05-14T09:56:16.982Z,94473.75
2023-05-14T09:58:43.311Z,94471.00
2023-05-14T10:01:09.681Z,94473.81
2023-05-14T10:03:36.014Z,94476.47
2023-05-14T10:06:02.311Z,94472.88
2023-05-14T10:08:28.636Z,94476.63
2023-05-14T10:10:54.961Z,94470.34
2023-05-14T10:13:21.287Z,94468.41
2023-05-14T10:15:47.598Z,94467.13
2023-05-14T10:18:13.984Z,94464.91
2023-05-14T10:20:40.311Z,94469.31
2023-05-14T10:23:06.636Z,94461.09
2023-05-14T10:25:34.057Z,94469.19
2023-05-14T10:28:00.386Z,94473.34
2023-05-14T10:30:26.810Z,94464.56
2023-05-14T10:32:53.320Z,94468.63
2023-05-14T10:35:19.702Z,94467.44
2023-05-14T10:37:46.037Z,94466.94
2023-05-14T10:40:12.388Z,94464.53
2023-05-14T10:42:38.722Z,94464.22
2023-05-14T10:45:05.052Z,94463.81
2023-05-14T10:47:31.415Z,94463.50
2023-05-14T10:49:57.764Z,94460.03
2023-05-14T10:52:24.085Z,94454.75
2023-05-14T10:54:50.417Z,94457.66
2023-05-14T10:57:16.726Z,94467.03
2023-05-14T10:59:43.034Z,94463.44
2023-05-14T11:02:09.468Z,94462.00
2023-05-14T11:04:35.843Z,94457.81
2023-05-14T11:07:02.161Z,94464.78
2023-05-14T11:09:28.475Z,94463.50
2023-05-14T11:11:54.795Z,94459.09
2023-05-14T11:14:21.105Z,94463.28
2023-05-14T11:16:47.443Z,94454.97
2023-05-14T11:19:13.962Z,94455.22
2023-05-14T11:21:40.564Z,94455.03
2023-05-14T11:24:06.944Z,94456.19
2023-05-14T11:26:33.288Z,94446.69
2023-05-14T11:28:59.619Z,94452.38
2023-05-14T11:31:25.983Z,94449.38
2023-05-14T11:33:52.311Z,94450.75
2023-05-14T11:36:18.635Z,94444.97
2023-05-14T11:38:44.954Z,94446.00
2023-05-14T11:41:11.264Z,94436.03
2023-05-14T11:43:37.585Z,94442.16
2023-05-14T11:46:03.934Z,94443.66
2023-05-14T11:48:30.280Z,94439.16
2023-05-14T11:50:56.589Z,94442.75
2023-05-14T11:53:22.907Z,94435.31
2023-05-14T11:55:49.258Z,94429.22
2023-05-14T11:58:15.569Z,94437.66
2023-05-14T12:00:41.886Z,94424.78
2023-05-14T12:03:08.318Z,94418.84
2023-05-14T12:05:34.686Z,94419.50
2023-05-14T12:08:00.987Z,94419.91
2023-05-14T12:10:27.294Z,94411.22
2023-05-14T12:12:53.630Z,94411.09
2023-05-14T12:15:19.971Z,94408.22
2023-05-14T12:17:46.355Z,94408.94
2023-05-14T12:20:12.668Z,94402.50
2023-05-14T12:22:38.983Z,94408.34
2023-05-14T12:25:05.297Z,94399.41
2023-05-14T12:27:31.602Z,94401.50
2023-05-14T12:30:01.990Z,94404.50
2023-05-14T12:32:35.941Z,94407.81
2023-05-14T12:35:02.314Z,94400.91
2023-05-14T12:37:31.035Z,94406.63
2023-05-14T12:39:57.604Z,94409.75
2023-05-14T12:42:23.936Z,94402.75
2023-05-14T12:44:50.264Z,94399.78
2023-05-14T12:47:16.605Z,94390.19
2023-05-14T12:49:42.927Z,94394.22
2023-05-14T12:54:43.637Z,94384.44
2023-05-14T12:57:09.987Z,94390.09
2023-05-14T12:59:36.291Z,94389.66
2023-05-14T13:02:02.597Z,94394.38
2023-05-14T13:04:29.015Z,94382.56
2023-05-14T13:06:55.457Z,94387.97
2023-05-14T13:09:21.774Z,94382.97
2023-05-14T13:11:48.084Z,94388.88
2023-05-14T13:14:14.406Z,94385.50
2023-05-14T13:16:40.741Z,94384.19
2023-05-14T13:19:07.151Z,94377.63
2023-05-14T13:21:33.527Z,94363.75
2023-05-14T13:23:59.836Z,94370.16
2023-05-14T13:26:26.141Z,94364.41
2023-05-14T13:28:52.444Z,94367.59
2023-05-14T13:31:18.792Z,94362.16
2023-05-14T13:33:45.109Z,94350.56
2023-05-14T13:36:11.441Z,94354.38
2023-05-14T13:38:37.760Z,94355.91
2023-05-14T13:41:04.098Z,94365.78
2023-05-14T13:43:30.429Z,94356.53
2023-05-14T13:45:56.814Z,94359.84
2023-05-14T13:48:23.169Z,94366.59
2023-05-14T13:50:49.493Z,94354.63
2023-05-14T13:53:15.806Z,94348.69
2023-05-14T13:55:42.174Z,94356.97
2023-05-14T13:58:08.476Z,94353.56
2023-05-14T14:00:34.827Z,94355.44
2023-05-14T14:03:01.186Z,94357.78
2023-05-14T14:05:27.675Z,94342.88
2023-05-14T14:08:00.929Z,94352.88
2023-05-14T14:10:34.463Z,94348.19
2023-05-14T14:13:00.762Z,94343.03
2023-05-14T14:15:27.095Z,94337.34
2023-05-14T14:17:53.500Z,94332.00
2023-05-14T14:20:19.866Z,94338.25
2023-05-14T14:22:46.177Z,94328.03
2023-05-14T14:25:12.480Z,94331.47
2023-05-14T14:27:38.826Z,94328.00
2023-05-14T14:30:05.142Z,94329.91
2023-05-14T14:32:31.479Z,94327.34
2023-05-14T14:34:57.849Z,94324.63
2023-05-14T14:37:24.166Z,94326.69
2023-05-14T14:39:50.470Z,94326.69
2023-05-14T14:42:16.808Z,94325.56
2023-05-14T14:44:43.113Z,94330.00
2023-05-14T14:47:09.442Z,94328.22
2023-05-14T14:49:35.758Z,94332.84
2023-05-14T14:52:02.080Z,94326.91
2023-05-14T14:54:28.394Z,94330.13
2023-05-14T14:56:54.699Z,94333.78
2023-05-14T14:59:21.026Z,94329.66
2023-05-14T15:01:47.370Z,94325.84
2023-05-14T15:04:13.733Z,94328.09
2023-05-14T15:06:40.053Z,94327.72
2023-05-14T15:09:06.377Z,94330.84
2023-05-14T15:11:32.708Z,94334.59
2023-05-14T15:13:59.043Z,94335.34
2023-05-14T15:16:25.406Z,94330.97
2023-05-14T15:18:51.821Z,94339.69
2023-05-14T15:21:18.186Z,94342.41
2023-05-14T15:23:44.511Z,94338.47
2023-05-14T15:26:10.835Z,94332.88
2023-05-14T15:28:37.186Z,94333.53
2023-05-14T15:31:03.580Z,94338.34
2023-05-14T15:33:29.908Z,94340.78
2023-05-14T15:35:56.228Z,94339.34
2023-05-14T15:38:22.552Z,94331.56
2023-05-14T15:40:48.883Z,94339.03
2023-05-14T15:43:15.199Z,94328.22
2023-05-14T15:45:41.549Z,94336.50
2023-05-14T15:48:07.934Z,94338.66
2023-05-14T15:50:34.325Z,94338.44
2023-05-14T15:53:00.649Z,94328.47
2023-05-14T15:55:26.980Z,94335.00
2023-05-14T15:57:53.309Z,94340.28
2023-05-14T16:00:19.650Z,94347.88
2023-05-14T16:02:46.113Z,94352.19
2023-05-14T16:05:12.495Z,94346.91
2023-05-14T16:07:38.827Z,94345.06
2023-05-14T16:10:05.233Z,94343.84
2023-05-14T16:12:31.747Z,94344.25
2023-05-14T16:14:58.057Z,94341.69
2023-05-14T16:17:24.500Z,94344.50
2023-05-14T16:19:51.350Z,94344.56
2023-05-14T16:22:18.689Z,94348.06
2023-05-14T16:24:45.001Z,94334.28
2023-05-14T16:27:11.337Z,94346.84
2023-05-14T16:29:37.678Z,94355.31
2023-05-14T16:32:04.037Z,94338.16
2023-05-14T16:34:30.358Z,94342.66
2023-05-14T16:36:56.687Z,94341.75
2023-05-14T16:39:23.014Z,94349.81
2023-05-14T16:41:49.487Z,94364.09
2023-05-14T16:44:15.784Z,94355.34
2023-05-14T16:46:42.106Z,94357.81
2023-05-14T16:49:08.471Z,94369.47
2023-05-14T16:51:34.793Z,94368.75
2023-05-14T16:54:01.200Z,94367.00
2023-05-14T16:56:27.528Z,94361.41
2023-05-14T16:58:53.861Z,94370.09
2023-05-14T17:01:20.206Z,94360.13
2023-05-14T17:03:46.580Z,94367.19
2023-05-14T17:06:12.912Z,94364.13
2023-05-14T17:08:39.237Z,94372.19
2023-05-14T17:11:05.692Z,94368.78
2023-05-14T17:13:32.272Z,94373.94
2023-05-14T17:15:58.633Z,94370.22
2023-05-14T17:18:25.002Z,94369.09
2023-05-14T17:20:51.334Z,94368.72
2023-05-14T17:23:17.647Z,94374.53
2023-05-14T17:25:43.966Z,94378.56
2023-05-14T17:28:10.298Z,94373.47
2023-05-14T17:30:36.625Z,94373.16
2023-05-14T17:33:03.017Z,94372.75
2023-05-14T17:35:29.362Z,94385.69
2023-05-14T17:37:55.700Z,94380.28
2023-05-14T17:40:22.020Z,94381.53
2023-05-14T17:42:48.337Z,94379.25
2023-05-14T17:45:14.675Z,94385.50
2023-05-14T17:47:41.042Z,94390.97
2023-05-14T17:50:07.434Z,94400.03
2023-05-14T17:52:33.788Z,94397.50
2023-05-14T17:55:00.196Z,94406.09
2023-05-14T17:57:26.620Z,94411.47
2023-05-14T17:59:52.966Z,94416.56
2023-05-14T18:02:19.325Z,94431.63
2023-05-14T18:04:45.645Z,94440.22
2023-05-14T18:07:11.959Z,94443.91
2023-05-14T18:09:38.276Z,94450.13
2023-05-14T18:12:04.624Z,94453.47
2023-05-14T18:14:30.963Z,94450.44
2023-05-14T18:16:57.397Z,94464.91
2023-05-14T18:19:23.838Z,94476.63
2023-05-14T18:21:50.171Z,94482.50
2023-05-14T18:24:16.551Z,94497.56
2023-05-14T18:26:42.890Z,94489.41
2023-05-14T18:29:09.231Z,94472.97
2023-05-14T18:31:35.628Z,94479.72
2023-05-14T18:34:01.969Z,94486.59
2023-05-14T18:36:28.289Z,94500.44
2023-05-14T18:38:54.646Z,94509.88
2023-05-14T18:41:20.970Z,94520.19
2023-05-14T18:43:47.286Z,94517.63
2023-05-14T18:46:13.624Z,94517.81
2023-05-14T18:48:39.975Z,94515.88
2023-05-14T18:51:06.309Z,94506.53
2023-05-14T18:53:32.619Z,94504.75
2023-05-14T18:55:58.942Z,94499.63
2023-05-14T18:58:25.267Z,94495.53
2023-05-14T19:00:51.584Z,94488.28
2023-05-14T19:03:17.979Z,94493.59
2023-05-14T19:05:44.396Z,94503.41
2023-05-14T19:08:10.726Z,94498.16
2023-05-14T19:10:37.068Z,94502.28
2023-05-14T19:13:03.402Z,94511.72
2023-05-14T19:15:29.732Z,94517.84
2023-05-14T19:17:56.066Z,94531.72
2023-05-14T19:20:22.385Z,94534.03
2023-05-14T19:22:48.684Z,94539.97
2023-05-14T19:25:14.984Z,94534.28
2023-05-14T19:27:41.318Z,94537.72
2023-05-14T19:30:07.663Z,94540.75
2023-05-14T19:32:34.019Z,94537.13
2023-05-14T19:35:00.361Z,94531.66
2023-05-14T19:37:26.716Z,94536.94
2023-05-14T19:39:53.043Z,94533.28
2023-05-14T19:42:19.354Z,94538.38
2023-05-14T19:44:45.665Z,94540.63
2023-05-14T19:47:12.171Z,94546.97
2023-05-14T19:49:38.634Z,94541.06
2023-05-14T19:52:04.948Z,94545.19
2023-05-14T19:54:31.262Z,94549.09
2023-05-14T19:56:57.565Z,94548.28
2023-05-14T19:59:23.865Z,94551.91
2023-05-14T20:01:50.171Z,94549.91
2023-05-14T20:04:16.474Z,94550.94
2023-05-14T20:06:42.789Z,94547.47
2023-05-14T20:09:09.107Z,94539.16
2023-05-14T20:11:35.429Z,94538.13
2023-05-14T20:14:01.742Z,94539.97
2023-05-14T20:16:28.094Z,94539.34
2023-05-14T20:18:54.500Z,94535.06
2023-05-14T20:21:20.836Z,94535.25
2023-05-14T20:23:47.128Z,94540.16
2023-05-14T20:26:13.465Z,94543.00
2023-05-14T20:28:39.765Z,94533.03
2023-05-14T20:31:06.113Z,94535.91
2023-05-14T20:33:32.516Z,94529.56
2023-05-14T20:35:58.837Z,94525.50
2023-05-14T20:38:25.138Z,94524.69
2023-05-14T20:40:51.455Z,94519.81
2023-05-14T20:43:17.813Z,94514.50
2023-05-14T20:45:44.129Z,94516.13
2023-05-14T20:48:10.488Z,94522.25
2023-05-14T20:50:36.817Z,94521.03
2023-05-14T20:53:03.140Z,94519.41
2023-05-14T20:55:29.469Z,94514.94
2023-05-14T20:57:55.818Z,94518.16
2023-05-14T21:00:22.149Z,94518.38
2023-05-14T21:02:48.532Z,94522.47
2023-05-14T21:05:14.949Z,94518.78
2023-05-14T21:07:41.276Z,94515.34
2023-05-14T21:10:07.687Z,94521.84
2023-05-14T21:12:34.001Z,94520.84
2023-05-14T21:15:00.321Z,94524.09
2023-05-14T21:17:26.702Z,94515.56
2023-05-14T21:19:53.051Z,94513.28
2023-05-14T21:22:19.368Z,94512.28
2023-05-14T21:24:45.674Z,94512.91
2023-05-14T21:27:11.991Z,94515.94
2023-05-14T21:29:38.312Z,94514.50
2023-05-14T21:32:04.700Z,94518.16
2023-05-14T21:34:32.033Z,94515.34
2023-05-14T21:36:58.454Z,94510.03
2023-05-14T21:39:24.793Z,94511.88
2023-05-14T21:41:51.151Z,94502.91
2023-05-14T21:44:17.475Z,94502.13
2023-05-14T21:46:43.779Z,94497.41
2023-05-14T21:49:10.104Z,94499.03
2023-05-14T21:51:36.452Z,94505.16
2023-05-14T21:54:02.775Z,94508.81
2023-05-14T21:56:29.135Z,94507.00
2023-05-14T21:58:55.460Z,94506.16
2023-05-14T22:01:21.817Z,94504.34
2023-05-14T22:03:48.183Z,94509.59
2023-05-14T22:06:14.495Z,94509.00
2023-05-14T22:08:40.814Z,94519.00
2023-05-14T22:11:07.157Z,94514.72
2023-05-14T22:13:33.468Z,94519.00
2023-05-14T22:16:09.058Z,94517.38
2023-05-14T22:18:38.890Z,94520.22
2023-05-14T22:21:05.248Z,94517.16
2023-05-14T22:23:31.588Z,94519.81
2023-05-14T22:25:57.912Z,94527.53
2023-05-14T22:28:24.219Z,94534.88
2023-05-14T22:30:50.549Z,94534.06
2023-05-14T22:33:16.865Z,94525.50
2023-05-14T22:35:43.182Z,94519.59
2023-05-14T22:38:09.505Z,94512.44
2023-05-14T22:40:35.822Z,94501.06
2023-05-14T22:43:02.144Z,94506.53
2023-05-14T22:45:28.471Z,94500.84
2023-05-14T22:47:54.850Z,94503.47
2023-05-14T22:50:21.178Z,94496.97
2023-05-14T22:52:47.513Z,94494.94
2023-05-14T22:55:13.831Z,94492.69
2023-05-14T22:57:40.155Z,94500.63
2023-05-14T23:00:06.457Z,94498.81
2023-05-14T23:02:32.868Z,94492.09
2023-05-14T23:04:59.264Z,94493.91
2023-05-14T23:07:25.596Z,94496.38
2023-05-14T23:09:51.918Z,94491.28
2023-05-14T23:12:18.230Z,94491.28
2023-05-14T23:14:44.536Z,94494.53
2023-05-14T23:17:10.870Z,94488.63
2023-05-14T23:19:37.225Z,94483.94
2023-05-14T23:22:03.557Z,94491.25
2023-05-14T23:24:29.883Z,94488.03
2023-05-14T23:26:56.205Z,94498.63
2023-05-14T23:29:22.508Z,94482.72
2023-05-14T23:31:48.866Z,94491.88
2023-05-14T23:34:15.235Z,94487.41
2023-05-14T23:36:41.548Z,94496.38
2023-05-14T23:39:07.868Z,94487.63
2023-05-14T23:41:34.196Z,94477.66
2023-05-14T23:44:00.546Z,94482.94
2023-05-14T23:46:27.004Z,94487.41
2023-05-14T23:48:53.393Z,94492.50
2023-05-14T23:51:19.708Z,94491.09
2023-05-14T23:53:46.030Z,94489.88
2023-05-14T23:56:12.358Z,94484.94
2023-05-14T23:58:38.674Z,94485.78
